sensor_id;sensor_type;location;lat;lon;timestamp;P1;durP1;ratioP1;P2;durP2;ratioP2
8225;SDS011;4154;48.810;9.012;2022-10-18T00:02:16;8.98;;;4.53;;
8225;SDS011;4154;48.810;9.012;2022-10-18T00:04:44;8.48;;;4.75;;
8225;SDS011;4154;48.810;9.012;2022-10-18T00:07:10;7.45;;;4.70;;
8225;SDS011;4154;48.810;9.012;2022-10-18T00:09:36;7.20;;;4.30;;
8225;SDS011;4154;48.810;9.012;2022-10-18T00:12:02;6.30;;;4.25;;
8225;SDS011;4154;48.810;9.012;2022-10-18T00:14:28;8.32;;;4.50;;
8225;SDS011;4154;48.810;9.012;2022-10-18T00:16:54;7.40;;;4.60;;
8225;SDS011;4154;48.810;9.012;2022-10-18T00:19:20;7.38;;;4.25;;
8225;SDS011;4154;48.810;9.012;2022-10-18T00:21:48;7.95;;;4.43;;
8225;SDS011;4154;48.810;9.012;2022-10-18T00:24:22;6.10;;;4.25;;
8225;SDS011;4154;48.810;9.012;2022-10-18T00:26:48;7.43;;;4.97;;
8225;SDS011;4154;48.810;9.012;2022-10-18T00:29:16;4.85;;;4.15;;
8225;SDS011;4154;48.810;9.012;2022-10-18T00:31:42;6.32;;;4.35;;
8225;SDS011;4154;48.810;9.012;2022-10-18T00:34:11;9.38;;;4.20;;
8225;SDS011;4154;48.810;9.012;2022-10-18T00:36:39;6.75;;;4.00;;
8225;SDS011;4154;48.810;9.012;2022-10-18T00:39:06;9.35;;;4.63;;
8225;SDS011;4154;48.810;9.012;2022-10-18T00:41:36;9.20;;;4.10;;
8225;SDS011;4154;48.810;9.012;2022-10-18T00:46:39;5.18;;;4.20;;
8225;SDS011;4154;48.810;9.012;2022-10-18T00:49:11;7.35;;;4.65;;
8225;SDS011;4154;48.810;9.012;2022-10-18T00:51:44;6.65;;;4.55;;
8225;SDS011;4154;48.810;9.012;2022-10-18T00:54:19;7.65;;;4.28;;
8225;SDS011;4154;48.810;9.012;2022-10-18T00:56:45;5.60;;;4.57;;
8225;SDS011;4154;48.810;9.012;2022-10-18T00:59:15;7.25;;;4.30;;
8225;SDS011;4154;48.810;9.012;2022-10-18T01:01:43;6.45;;;4.50;;
8225;SDS011;4154;48.810;9.012;2022-10-18T01:04:09;8.32;;;4.80;;
8225;SDS011;4154;48.810;9.012;2022-10-18T01:06:40;5.47;;;4.38;;
8225;SDS011;4154;48.810;9.012;2022-10-18T01:09:19;6.78;;;4.50;;
8225;SDS011;4154;48.810;9.012;2022-10-18T01:12:14;7.63;;;4.47;;
8225;SDS011;4154;48.810;9.012;2022-10-18T01:30:14;6.40;;;4.68;;
8225;SDS011;4154;48.810;9.012;2022-10-18T01:33:26;7.93;;;4.70;;
8225;SDS011;4154;48.810;9.012;2022-10-18T01:36:08;4.50;;;4.10;;
8225;SDS011;4154;48.810;9.012;2022-10-18T01:38:53;6.85;;;3.97;;
8225;SDS011;4154;48.810;9.012;2022-10-18T01:41:25;5.38;;;4.10;;
8225;SDS011;4154;48.810;9.012;2022-10-18T01:43:57;7.78;;;4.00;;
8225;SDS011;4154;48.810;9.012;2022-10-18T01:46:27;5.78;;;3.80;;
8225;SDS011;4154;48.810;9.012;2022-10-18T01:48:54;6.60;;;4.43;;
8225;SDS011;4154;48.810;9.012;2022-10-18T01:51:27;6.03;;;3.90;;
8225;SDS011;4154;48.810;9.012;2022-10-18T01:53:56;5.32;;;4.10;;
8225;SDS011;4154;48.810;9.012;2022-10-18T01:56:24;5.63;;;3.90;;
8225;SDS011;4154;48.810;9.012;2022-10-18T02:10:28;5.60;;;3.70;;
8225;SDS011;4154;48.810;9.012;2022-10-18T02:12:58;5.55;;;3.63;;
8225;SDS011;4154;48.810;9.012;2022-10-18T02:15:27;6.50;;;3.60;;
8225;SDS011;4154;48.810;9.012;2022-10-18T02:17:59;6.65;;;3.83;;
8225;SDS011;4154;48.810;9.012;2022-10-18T02:20:31;5.90;;;3.90;;
8225;SDS011;4154;48.810;9.012;2022-10-18T02:23:00;4.72;;;3.58;;
8225;SDS011;4154;48.810;9.012;2022-10-18T02:25:28;7.00;;;3.80;;
8225;SDS011;4154;48.810;9.012;2022-10-18T02:27:58;5.75;;;4.35;;
8225;SDS011;4154;48.810;9.012;2022-10-18T02:30:27;4.38;;;3.97;;
8225;SDS011;4154;48.810;9.012;2022-10-18T02:33:44;5.75;;;3.80;;
8225;SDS011;4154;48.810;9.012;2022-10-18T02:36:34;5.20;;;3.72;;
8225;SDS011;4154;48.810;9.012;2022-10-18T02:39:17;5.03;;;3.80;;
8225;SDS011;4154;48.810;9.012;2022-10-18T02:41:53;4.65;;;3.40;;
8225;SDS011;4154;48.810;9.012;2022-10-18T02:44:21;5.05;;;3.78;;
8225;SDS011;4154;48.810;9.012;2022-10-18T02:46:47;4.20;;;3.85;;
8225;SDS011;4154;48.810;9.012;2022-10-18T02:49:13;4.75;;;3.63;;
8225;SDS011;4154;48.810;9.012;2022-10-18T02:51:38;4.00;;;3.67;;
8225;SDS011;4154;48.810;9.012;2022-10-18T02:54:04;4.10;;;3.70;;
8225;SDS011;4154;48.810;9.012;2022-10-18T02:56:30;4.43;;;3.70;;
8225;SDS011;4154;48.810;9.012;2022-10-18T02:58:56;5.47;;;3.72;;
8225;SDS011;4154;48.810;9.012;2022-10-18T03:01:22;8.25;;;3.95;;
8225;SDS011;4154;48.810;9.012;2022-10-18T03:03:47;4.35;;;3.40;;
8225;SDS011;4154;48.810;9.012;2022-10-18T03:06:13;4.32;;;3.60;;
8225;SDS011;4154;48.810;9.012;2022-10-18T03:08:39;6.85;;;3.55;;
8225;SDS011;4154;48.810;9.012;2022-10-18T03:11:05;6.43;;;3.70;;
8225;SDS011;4154;48.810;9.012;2022-10-18T03:13:31;5.50;;;3.70;;
8225;SDS011;4154;48.810;9.012;2022-10-18T03:15:58;3.78;;;3.30;;
8225;SDS011;4154;48.810;9.012;2022-10-18T03:18:24;4.45;;;3.35;;
8225;SDS011;4154;48.810;9.012;2022-10-18T03:20:50;5.93;;;4.15;;
8225;SDS011;4154;48.810;9.012;2022-10-18T03:25:45;5.60;;;3.63;;
8225;SDS011;4154;48.810;9.012;2022-10-18T03:28:11;4.18;;;3.47;;
8225;SDS011;4154;48.810;9.012;2022-10-18T03:30:36;4.65;;;3.47;;
8225;SDS011;4154;48.810;9.012;2022-10-18T03:33:05;4.25;;;3.20;;
8225;SDS011;4154;48.810;9.012;2022-10-18T03:35:31;4.40;;;3.20;;
8225;SDS011;4154;48.810;9.012;2022-10-18T03:37:57;3.40;;;3.10;;
8225;SDS011;4154;48.810;9.012;2022-10-18T03:40:23;4.07;;;3.00;;
8225;SDS011;4154;48.810;9.012;2022-10-18T03:42:49;4.05;;;3.20;;
8225;SDS011;4154;48.810;9.012;2022-10-18T03:45:14;5.32;;;2.95;;
8225;SDS011;4154;48.810;9.012;2022-10-18T03:47:40;4.32;;;3.28;;
8225;SDS011;4154;48.810;9.012;2022-10-18T03:50:06;4.15;;;3.17;;
8225;SDS011;4154;48.810;9.012;2022-10-18T03:52:32;3.67;;;3.38;;
8225;SDS011;4154;48.810;9.012;2022-10-18T03:54:58;4.38;;;3.50;;
8225;SDS011;4154;48.810;9.012;2022-10-18T03:57:24;3.67;;;2.97;;
8225;SDS011;4154;48.810;9.012;2022-10-18T03:59:49;3.92;;;3.35;;
8225;SDS011;4154;48.810;9.012;2022-10-18T04:02:15;5.93;;;3.35;;
8225;SDS011;4154;48.810;9.012;2022-10-18T04:04:41;5.25;;;3.40;;
8225;SDS011;4154;48.810;9.012;2022-10-18T04:07:07;3.70;;;3.20;;
8225;SDS011;4154;48.810;9.012;2022-10-18T04:09:33;4.82;;;3.58;;
8225;SDS011;4154;48.810;9.012;2022-10-18T04:11:58;4.25;;;3.30;;
8225;SDS011;4154;48.810;9.012;2022-10-18T04:14:24;3.85;;;3.28;;
8225;SDS011;4154;48.810;9.012;2022-10-18T04:16:50;3.83;;;3.15;;
8225;SDS011;4154;48.810;9.012;2022-10-18T04:19:16;4.00;;;3.20;;
8225;SDS011;4154;48.810;9.012;2022-10-18T04:21:42;7.88;;;3.17;;
8225;SDS011;4154;48.810;9.012;2022-10-18T04:24:08;6.03;;;3.17;;
8225;SDS011;4154;48.810;9.012;2022-10-18T04:26:34;3.75;;;3.33;;
8225;SDS011;4154;48.810;9.012;2022-10-18T04:29:00;5.05;;;3.30;;
8225;SDS011;4154;48.810;9.012;2022-10-18T04:31:25;5.35;;;3.30;;
8225;SDS011;4154;48.810;9.012;2022-10-18T04:33:53;3.90;;;3.08;;
8225;SDS011;4154;48.810;9.012;2022-10-18T04:36:19;5.78;;;3.40;;
8225;SDS011;4154;48.810;9.012;2022-10-18T04:38:45;5.32;;;3.28;;
8225;SDS011;4154;48.810;9.012;2022-10-18T04:41:10;4.03;;;3.53;;
8225;SDS011;4154;48.810;9.012;2022-10-18T04:43:36;5.18;;;3.30;;
8225;SDS011;4154;48.810;9.012;2022-10-18T04:46:02;3.88;;;3.47;;
8225;SDS011;4154;48.810;9.012;2022-10-18T04:48:27;6.43;;;3.53;;
8225;SDS011;4154;48.810;9.012;2022-10-18T04:50:53;4.60;;;3.33;;
8225;SDS011;4154;48.810;9.012;2022-10-18T04:53:19;4.13;;;3.50;;
8225;SDS011;4154;48.810;9.012;2022-10-18T04:55:46;4.45;;;3.67;;
8225;SDS011;4154;48.810;9.012;2022-10-18T04:58:14;4.25;;;3.30;;
8225;SDS011;4154;48.810;9.012;2022-10-18T05:00:41;3.40;;;3.10;;
8225;SDS011;4154;48.810;9.012;2022-10-18T05:03:07;8.55;;;3.70;;
8225;SDS011;4154;48.810;9.012;2022-10-18T05:05:35;4.75;;;3.35;;
8225;SDS011;4154;48.810;9.012;2022-10-18T05:08:00;7.57;;;3.47;;
8225;SDS011;4154;48.810;9.012;2022-10-18T05:10:26;4.97;;;3.45;;
8225;SDS011;4154;48.810;9.012;2022-10-18T05:12:52;5.35;;;3.67;;
8225;SDS011;4154;48.810;9.012;2022-10-18T05:15:18;5.60;;;3.83;;
8225;SDS011;4154;48.810;9.012;2022-10-18T05:17:43;4.32;;;3.40;;
8225;SDS011;4154;48.810;9.012;2022-10-18T05:20:09;3.53;;;3.17;;
8225;SDS011;4154;48.810;9.012;2022-10-18T05:22:35;4.72;;;3.33;;
8225;SDS011;4154;48.810;9.012;2022-10-18T05:25:01;4.55;;;3.45;;
8225;SDS011;4154;48.810;9.012;2022-10-18T05:27:27;4.60;;;3.58;;
8225;SDS011;4154;48.810;9.012;2022-10-18T05:29:53;4.97;;;3.65;;
8225;SDS011;4154;48.810;9.012;2022-10-18T05:32:19;4.75;;;3.50;;
8225;SDS011;4154;48.810;9.012;2022-10-18T05:34:45;6.35;;;3.40;;
8225;SDS011;4154;48.810;9.012;2022-10-18T05:37:11;5.68;;;3.38;;
8225;SDS011;4154;48.810;9.012;2022-10-18T05:39:37;3.42;;;3.13;;
8225;SDS011;4154;48.810;9.012;2022-10-18T05:42:03;7.45;;;3.97;;
8225;SDS011;4154;48.810;9.012;2022-10-18T05:44:30;4.97;;;3.45;;
8225;SDS011;4154;48.810;9.012;2022-10-18T05:46:56;5.85;;;3.92;;
8225;SDS011;4154;48.810;9.012;2022-10-18T05:49:21;5.90;;;3.38;;
8225;SDS011;4154;48.810;9.012;2022-10-18T05:51:47;6.03;;;3.85;;
8225;SDS011;4154;48.810;9.012;2022-10-18T05:54:13;5.03;;;3.40;;
8225;SDS011;4154;48.810;9.012;2022-10-18T05:56:40;5.03;;;3.60;;
8225;SDS011;4154;48.810;9.012;2022-10-18T05:59:06;5.25;;;3.83;;
8225;SDS011;4154;48.810;9.012;2022-10-18T06:01:36;5.00;;;3.67;;
8225;SDS011;4154;48.810;9.012;2022-10-18T06:04:03;5.35;;;3.92;;
8225;SDS011;4154;48.810;9.012;2022-10-18T06:06:29;5.28;;;3.40;;
8225;SDS011;4154;48.810;9.012;2022-10-18T06:08:56;4.25;;;3.72;;
8225;SDS011;4154;48.810;9.012;2022-10-18T06:11:22;4.13;;;3.72;;
8225;SDS011;4154;48.810;9.012;2022-10-18T06:13:49;4.70;;;3.38;;
8225;SDS011;4154;48.810;9.012;2022-10-18T06:16:17;5.47;;;3.90;;
8225;SDS011;4154;48.810;9.012;2022-10-18T06:18:48;4.47;;;3.70;;
8225;SDS011;4154;48.810;9.012;2022-10-18T06:21:17;4.70;;;3.58;;
8225;SDS011;4154;48.810;9.012;2022-10-18T06:23:50;4.63;;;3.60;;
8225;SDS011;4154;48.810;9.012;2022-10-18T06:26:19;4.00;;;3.60;;
8225;SDS011;4154;48.810;9.012;2022-10-18T06:28:46;4.85;;;3.53;;
8225;SDS011;4154;48.810;9.012;2022-10-18T06:31:12;4.80;;;3.60;;
8225;SDS011;4154;48.810;9.012;2022-10-18T06:33:39;4.63;;;3.70;;
8225;SDS011;4154;48.810;9.012;2022-10-18T06:36:05;3.97;;;3.50;;
8225;SDS011;4154;48.810;9.012;2022-10-18T06:38:39;3.97;;;3.60;;
8225;SDS011;4154;48.810;9.012;2022-10-18T06:41:06;5.78;;;3.60;;
8225;SDS011;4154;48.810;9.012;2022-10-18T06:43:32;4.72;;;3.70;;
8225;SDS011;4154;48.810;9.012;2022-10-18T06:46:00;4.05;;;3.58;;
8225;SDS011;4154;48.810;9.012;2022-10-18T06:48:29;4.63;;;4.15;;
8225;SDS011;4154;48.810;9.012;2022-10-18T06:50:56;6.43;;;3.58;;
8225;SDS011;4154;48.810;9.012;2022-10-18T06:53:24;4.40;;;3.63;;
8225;SDS011;4154;48.810;9.012;2022-10-18T06:56:04;4.00;;;3.70;;
8225;SDS011;4154;48.810;9.012;2022-10-18T06:58:35;5.95;;;3.67;;
8225;SDS011;4154;48.810;9.012;2022-10-18T07:01:07;3.78;;;3.45;;
8225;SDS011;4154;48.810;9.012;2022-10-18T07:03:36;5.57;;;3.60;;
8225;SDS011;4154;48.810;9.012;2022-10-18T07:06:04;4.93;;;3.50;;
8225;SDS011;4154;48.810;9.012;2022-10-18T07:08:33;3.95;;;3.28;;
8225;SDS011;4154;48.810;9.012;2022-10-18T07:10:59;5.25;;;3.78;;
8225;SDS011;4154;48.810;9.012;2022-10-18T07:13:29;4.82;;;3.53;;
8225;SDS011;4154;48.810;9.012;2022-10-18T07:16:03;3.92;;;3.63;;
8225;SDS011;4154;48.810;9.012;2022-10-18T07:18:36;5.00;;;3.80;;
8225;SDS011;4154;48.810;9.012;2022-10-18T07:21:05;4.45;;;3.85;;
8225;SDS011;4154;48.810;9.012;2022-10-18T07:23:41;4.22;;;3.58;;
8225;SDS011;4154;48.810;9.012;2022-10-18T07:26:11;4.95;;;3.53;;
8225;SDS011;4154;48.810;9.012;2022-10-18T07:28:38;4.30;;;3.47;;
8225;SDS011;4154;48.810;9.012;2022-10-18T07:31:05;4.57;;;3.72;;
8225;SDS011;4154;48.810;9.012;2022-10-18T07:33:34;4.80;;;3.80;;
8225;SDS011;4154;48.810;9.012;2022-10-18T07:36:04;4.40;;;3.70;;
8225;SDS011;4154;48.810;9.012;2022-10-18T07:38:33;4.68;;;3.60;;
8225;SDS011;4154;48.810;9.012;2022-10-18T07:41:00;4.68;;;3.58;;
8225;SDS011;4154;48.810;9.012;2022-10-18T07:43:28;10.40;;;4.15;;
8225;SDS011;4154;48.810;9.012;2022-10-18T07:45:59;9.25;;;4.60;;
8225;SDS011;4154;48.810;9.012;2022-10-18T07:48:27;7.93;;;4.35;;
8225;SDS011;4154;48.810;9.012;2022-10-18T07:50:53;5.45;;;4.05;;
8225;SDS011;4154;48.810;9.012;2022-10-18T07:53:26;6.07;;;4.18;;
8225;SDS011;4154;48.810;9.012;2022-10-18T07:56:00;4.18;;;3.78;;
8225;SDS011;4154;48.810;9.012;2022-10-18T07:58:29;6.47;;;3.80;;
8225;SDS011;4154;48.810;9.012;2022-10-18T08:00:57;5.25;;;3.70;;
8225;SDS011;4154;48.810;9.012;2022-10-18T08:03:31;4.88;;;3.83;;
8225;SDS011;4154;48.810;9.012;2022-10-18T08:05:57;3.95;;;3.55;;
8225;SDS011;4154;48.810;9.012;2022-10-18T08:08:23;5.93;;;3.70;;
8225;SDS011;4154;48.810;9.012;2022-10-18T08:10:50;4.28;;;3.55;;
8225;SDS011;4154;48.810;9.012;2022-10-18T08:13:17;4.93;;;3.90;;
8225;SDS011;4154;48.810;9.012;2022-10-18T08:15:43;4.72;;;3.70;;
8225;SDS011;4154;48.810;9.012;2022-10-18T08:18:10;3.83;;;3.53;;
8225;SDS011;4154;48.810;9.012;2022-10-18T08:20:36;5.28;;;3.75;;
8225;SDS011;4154;48.810;9.012;2022-10-18T08:23:09;3.92;;;3.63;;
8225;SDS011;4154;48.810;9.012;2022-10-18T08:25:35;5.07;;;3.88;;
8225;SDS011;4154;48.810;9.012;2022-10-18T08:28:01;4.38;;;3.92;;
8225;SDS011;4154;48.810;9.012;2022-10-18T08:30:27;4.15;;;3.83;;
8225;SDS011;4154;48.810;9.012;2022-10-18T08:32:52;5.60;;;3.97;;
8225;SDS011;4154;48.810;9.012;2022-10-18T08:35:18;3.97;;;3.50;;
8225;SDS011;4154;48.810;9.012;2022-10-18T08:37:44;5.80;;;4.20;;
8225;SDS011;4154;48.810;9.012;2022-10-18T08:40:11;5.85;;;3.92;;
8225;SDS011;4154;48.810;9.012;2022-10-18T08:45:16;4.20;;;3.80;;
8225;SDS011;4154;48.810;9.012;2022-10-18T08:47:43;5.05;;;3.75;;
8225;SDS011;4154;48.810;9.012;2022-10-18T08:50:17;3.78;;;3.47;;
8225;SDS011;4154;48.810;9.012;2022-10-18T08:55:41;4.55;;;3.40;;
8225;SDS011;4154;48.810;9.012;2022-10-18T08:58:19;3.60;;;3.30;;
8225;SDS011;4154;48.810;9.012;2022-10-18T09:09:41;7.05;;;3.75;;
8225;SDS011;4154;48.810;9.012;2022-10-18T09:21:19;6.07;;;3.50;;
8225;SDS011;4154;48.810;9.012;2022-10-18T09:24:12;3.75;;;3.45;;
8225;SDS011;4154;48.810;9.012;2022-10-18T09:26:49;6.20;;;3.85;;
8225;SDS011;4154;48.810;9.012;2022-10-18T09:29:33;7.63;;;3.97;;
8225;SDS011;4154;48.810;9.012;2022-10-18T09:35:24;14.35;;;3.50;;
8225;SDS011;4154;48.810;9.012;2022-10-18T09:38:08;5.35;;;3.72;;
8225;SDS011;4154;48.810;9.012;2022-10-18T09:40:46;6.15;;;3.45;;
8225;SDS011;4154;48.810;9.012;2022-10-18T09:43:24;4.18;;;3.78;;
8225;SDS011;4154;48.810;9.012;2022-10-18T09:46:21;4.03;;;3.30;;
8225;SDS011;4154;48.810;9.012;2022-10-18T09:49:02;4.95;;;3.85;;
8225;SDS011;4154;48.810;9.012;2022-10-18T09:51:37;6.10;;;3.85;;
8225;SDS011;4154;48.810;9.012;2022-10-18T09:55:07;6.05;;;3.60;;
8225;SDS011;4154;48.810;9.012;2022-10-18T09:57:31;6.40;;;3.33;;
8225;SDS011;4154;48.810;9.012;2022-10-18T10:00:04;3.90;;;3.10;;
8225;SDS011;4154;48.810;9.012;2022-10-18T10:02:39;5.90;;;3.17;;
8225;SDS011;4154;48.810;9.012;2022-10-18T10:05:05;5.00;;;3.28;;
8225;SDS011;4154;48.810;9.012;2022-10-18T10:07:42;3.20;;;2.90;;
8225;SDS011;4154;48.810;9.012;2022-10-18T10:13:01;4.85;;;3.17;;
8225;SDS011;4154;48.810;9.012;2022-10-18T10:18:23;4.05;;;3.30;;
8225;SDS011;4154;48.810;9.012;2022-10-18T10:20:56;5.47;;;2.95;;
8225;SDS011;4154;48.810;9.012;2022-10-18T10:23:26;4.38;;;3.17;;
8225;SDS011;4154;48.810;9.012;2022-10-18T10:26:00;3.67;;;3.05;;
8225;SDS011;4154;48.810;9.012;2022-10-18T10:28:40;4.93;;;3.15;;
8225;SDS011;4154;48.810;9.012;2022-10-18T10:36:48;4.72;;;3.10;;
8225;SDS011;4154;48.810;9.012;2022-10-18T10:39:17;4.32;;;3.03;;
8225;SDS011;4154;48.810;9.012;2022-10-18T10:41:46;5.65;;;3.38;;
8225;SDS011;4154;48.810;9.012;2022-10-18T10:44:21;6.18;;;3.30;;
8225;SDS011;4154;48.810;9.012;2022-10-18T10:46:51;3.30;;;3.00;;
8225;SDS011;4154;48.810;9.012;2022-10-18T10:49:29;4.80;;;3.10;;
8225;SDS011;4154;48.810;9.012;2022-10-18T10:52:16;4.10;;;3.17;;
8225;SDS011;4154;48.810;9.012;2022-10-18T10:54:45;6.47;;;3.35;;
8225;SDS011;4154;48.810;9.012;2022-10-18T10:59:46;3.80;;;2.95;;
8225;SDS011;4154;48.810;9.012;2022-10-18T11:04:47;3.97;;;3.10;;
8225;SDS011;4154;48.810;9.012;2022-10-18T11:12:38;2.90;;;2.60;;
8225;SDS011;4154;48.810;9.012;2022-10-18T11:20:39;3.75;;;3.00;;
8225;SDS011;4154;48.810;9.012;2022-10-18T11:23:11;5.03;;;2.40;;
8225;SDS011;4154;48.810;9.012;2022-10-18T11:37:29;3.88;;;2.28;;
8225;SDS011;4154;48.810;9.012;2022-10-18T11:43:45;3.13;;;2.60;;
8225;SDS011;4154;48.810;9.012;2022-10-18T11:54:28;2.83;;;2.10;;
8225;SDS011;4154;48.810;9.012;2022-10-18T11:57:53;2.40;;;1.65;;
8225;SDS011;4154;48.810;9.012;2022-10-18T12:06:19;1.90;;;1.80;;
8225;SDS011;4154;48.810;9.012;2022-10-18T12:08:52;2.92;;;2.10;;
8225;SDS011;4154;48.810;9.012;2022-10-18T12:11:54;3.10;;;2.20;;
8225;SDS011;4154;48.810;9.012;2022-10-18T12:14:28;3.55;;;2.20;;
8225;SDS011;4154;48.810;9.012;2022-10-18T12:17:02;4.75;;;2.20;;
8225;SDS011;4154;48.810;9.012;2022-10-18T12:19:40;5.30;;;2.35;;
8225;SDS011;4154;48.810;9.012;2022-10-18T12:22:15;2.97;;;2.38;;
8225;SDS011;4154;48.810;9.012;2022-10-18T12:24:54;2.50;;;2.28;;
8225;SDS011;4154;48.810;9.012;2022-10-18T12:27:22;3.75;;;2.13;;
8225;SDS011;4154;48.810;9.012;2022-10-18T12:30:26;3.25;;;1.90;;
8225;SDS011;4154;48.810;9.012;2022-10-18T12:33:10;3.42;;;2.22;;
8225;SDS011;4154;48.810;9.012;2022-10-18T12:35:56;3.90;;;2.20;;
8225;SDS011;4154;48.810;9.012;2022-10-18T12:38:56;4.47;;;2.60;;
8225;SDS011;4154;48.810;9.012;2022-10-18T12:41:26;3.15;;;2.30;;
8225;SDS011;4154;48.810;9.012;2022-10-18T12:46:47;2.92;;;2.67;;
8225;SDS011;4154;48.810;9.012;2022-10-18T12:49:39;3.28;;;2.80;;
8225;SDS011;4154;48.810;9.012;2022-10-18T12:52:05;4.72;;;3.10;;
8225;SDS011;4154;48.810;9.012;2022-10-18T12:57:59;6.90;;;3.03;;
8225;SDS011;4154;48.810;9.012;2022-10-18T13:03:54;3.85;;;2.72;;
8225;SDS011;4154;48.810;9.012;2022-10-18T13:21:50;3.15;;;2.05;;
8225;SDS011;4154;48.810;9.012;2022-10-18T13:24:56;3.40;;;2.15;;
8225;SDS011;4154;48.810;9.012;2022-10-18T13:33:06;1.85;;;1.73;;
8225;SDS011;4154;48.810;9.012;2022-10-18T13:55:31;2.50;;;1.67;;
8225;SDS011;4154;48.810;9.012;2022-10-18T13:58:29;3.08;;;1.90;;
8225;SDS011;4154;48.810;9.012;2022-10-18T14:07:11;2.13;;;1.92;;
8225;SDS011;4154;48.810;9.012;2022-10-18T14:09:44;3.70;;;1.92;;
8225;SDS011;4154;48.810;9.012;2022-10-18T14:15:24;3.13;;;2.00;;
8225;SDS011;4154;48.810;9.012;2022-10-18T14:17:59;2.45;;;1.83;;
8225;SDS011;4154;48.810;9.012;2022-10-18T14:20:38;2.10;;;1.98;;
8225;SDS011;4154;48.810;9.012;2022-10-18T14:25:55;2.58;;;2.05;;
8225;SDS011;4154;48.810;9.012;2022-10-18T14:28:40;3.30;;;1.90;;
8225;SDS011;4154;48.810;9.012;2022-10-18T14:31:13;4.15;;;2.10;;
8225;SDS011;4154;48.810;9.012;2022-10-18T14:33:47;2.95;;;2.30;;
8225;SDS011;4154;48.810;9.012;2022-10-18T14:38:47;3.20;;;2.90;;
8225;SDS011;4154;48.810;9.012;2022-10-18T14:41:21;3.47;;;2.60;;
8225;SDS011;4154;48.810;9.012;2022-10-18T14:43:49;2.67;;;2.47;;
8225;SDS011;4154;48.810;9.012;2022-10-18T14:48:55;4.05;;;2.45;;
8225;SDS011;4154;48.810;9.012;2022-10-18T14:51:26;2.85;;;2.45;;
8225;SDS011;4154;48.810;9.012;2022-10-18T14:53:59;2.95;;;2.38;;
8225;SDS011;4154;48.810;9.012;2022-10-18T14:56:29;4.07;;;2.40;;
8225;SDS011;4154;48.810;9.012;2022-10-18T14:59:03;4.55;;;2.40;;
8225;SDS011;4154;48.810;9.012;2022-10-18T15:01:50;2.42;;;2.10;;
8225;SDS011;4154;48.810;9.012;2022-10-18T15:04:22;3.65;;;2.70;;
8225;SDS011;4154;48.810;9.012;2022-10-18T15:06:57;4.38;;;2.90;;
8225;SDS011;4154;48.810;9.012;2022-10-18T15:09:29;2.65;;;2.45;;
8225;SDS011;4154;48.810;9.012;2022-10-18T15:11:59;3.75;;;2.65;;
8225;SDS011;4154;48.810;9.012;2022-10-18T15:14:27;3.58;;;2.70;;
8225;SDS011;4154;48.810;9.012;2022-10-18T15:16:57;2.97;;;2.75;;
8225;SDS011;4154;48.810;9.012;2022-10-18T15:19:30;3.30;;;3.00;;
8225;SDS011;4154;48.810;9.012;2022-10-18T15:22:04;3.47;;;2.80;;
8225;SDS011;4154;48.810;9.012;2022-10-18T15:24:36;3.50;;;3.20;;
8225;SDS011;4154;48.810;9.012;2022-10-18T15:27:11;4.47;;;3.30;;
8225;SDS011;4154;48.810;9.012;2022-10-18T15:29:47;3.67;;;3.35;;
8225;SDS011;4154;48.810;9.012;2022-10-18T15:35:05;4.18;;;3.28;;
8225;SDS011;4154;48.810;9.012;2022-10-18T15:37:43;3.70;;;3.00;;
8225;SDS011;4154;48.810;9.012;2022-10-18T15:40:15;4.30;;;3.53;;
8225;SDS011;4154;48.810;9.012;2022-10-18T15:42:47;4.32;;;3.50;;
8225;SDS011;4154;48.810;9.012;2022-10-18T15:50:36;3.83;;;3.42;;
8225;SDS011;4154;48.810;9.012;2022-10-18T15:58:52;4.22;;;3.90;;
8225;SDS011;4154;48.810;9.012;2022-10-18T16:04:07;4.20;;;3.80;;
8225;SDS011;4154;48.810;9.012;2022-10-18T16:06:53;4.18;;;3.83;;
8225;SDS011;4154;48.810;9.012;2022-10-18T16:09:20;4.22;;;3.70;;
8225;SDS011;4154;48.810;9.012;2022-10-18T16:11:48;4.15;;;3.65;;
8225;SDS011;4154;48.810;9.012;2022-10-18T16:14:15;4.25;;;3.80;;
8225;SDS011;4154;48.810;9.012;2022-10-18T16:16:43;3.92;;;3.55;;
8225;SDS011;4154;48.810;9.012;2022-10-18T16:19:12;4.63;;;3.53;;
8225;SDS011;4154;48.810;9.012;2022-10-18T16:21:40;5.63;;;3.97;;
8225;SDS011;4154;48.810;9.012;2022-10-18T16:24:07;3.97;;;3.58;;
8225;SDS011;4154;48.810;9.012;2022-10-18T16:26:33;3.83;;;3.53;;
8225;SDS011;4154;48.810;9.012;2022-10-18T16:29:00;4.00;;;3.70;;
8225;SDS011;4154;48.810;9.012;2022-10-18T16:31:27;7.00;;;3.80;;
8225;SDS011;4154;48.810;9.012;2022-10-18T16:33:56;5.72;;;4.38;;
8225;SDS011;4154;48.810;9.012;2022-10-18T16:36:24;5.68;;;3.80;;
8225;SDS011;4154;48.810;9.012;2022-10-18T16:38:54;4.10;;;3.70;;
8225;SDS011;4154;48.810;9.012;2022-10-18T16:41:22;4.50;;;4.00;;
8225;SDS011;4154;48.810;9.012;2022-10-18T16:43:48;4.10;;;3.72;;
8225;SDS011;4154;48.810;9.012;2022-10-18T16:46:16;3.75;;;3.45;;
8225;SDS011;4154;48.810;9.012;2022-10-18T16:48:51;4.97;;;3.75;;
8225;SDS011;4154;48.810;9.012;2022-10-18T16:51:18;4.20;;;3.80;;
8225;SDS011;4154;48.810;9.012;2022-10-18T16:53:44;4.65;;;3.88;;
8225;SDS011;4154;48.810;9.012;2022-10-18T16:56:14;4.40;;;3.50;;
8225;SDS011;4154;48.810;9.012;2022-10-18T16:58:54;4.50;;;3.72;;
8225;SDS011;4154;48.810;9.012;2022-10-18T17:01:21;6.00;;;3.50;;
8225;SDS011;4154;48.810;9.012;2022-10-18T17:03:49;4.68;;;4.10;;
8225;SDS011;4154;48.810;9.012;2022-10-18T17:08:51;4.45;;;3.95;;
8225;SDS011;4154;48.810;9.012;2022-10-18T17:11:19;4.20;;;3.80;;
8225;SDS011;4154;48.810;9.012;2022-10-18T17:13:47;4.15;;;3.83;;
8225;SDS011;4154;48.810;9.012;2022-10-18T17:16:23;4.82;;;4.43;;
8225;SDS011;4154;48.810;9.012;2022-10-18T17:18:50;4.60;;;4.20;;
8225;SDS011;4154;48.810;9.012;2022-10-18T17:21:16;4.40;;;4.03;;
8225;SDS011;4154;48.810;9.012;2022-10-18T17:23:42;4.97;;;4.15;;
8225;SDS011;4154;48.810;9.012;2022-10-18T17:26:15;4.93;;;4.40;;
8225;SDS011;4154;48.810;9.012;2022-10-18T17:28:44;4.70;;;4.30;;
8225;SDS011;4154;48.810;9.012;2022-10-18T17:31:10;4.78;;;4.38;;
8225;SDS011;4154;48.810;9.012;2022-10-18T17:33:38;4.90;;;4.50;;
8225;SDS011;4154;48.810;9.012;2022-10-18T17:36:05;5.15;;;4.78;;
8225;SDS011;4154;48.810;9.012;2022-10-18T17:38:31;4.93;;;4.53;;
8225;SDS011;4154;48.810;9.012;2022-10-18T17:40:57;5.65;;;4.50;;
8225;SDS011;4154;48.810;9.012;2022-10-18T17:43:23;4.82;;;4.43;;
8225;SDS011;4154;48.810;9.012;2022-10-18T17:45:53;5.50;;;4.97;;
8225;SDS011;4154;48.810;9.012;2022-10-18T17:48:20;4.80;;;4.40;;
8225;SDS011;4154;48.810;9.012;2022-10-18T17:50:47;5.15;;;4.75;;
8225;SDS011;4154;48.810;9.012;2022-10-18T17:53:14;5.47;;;4.97;;
8225;SDS011;4154;48.810;9.012;2022-10-18T17:55:42;5.15;;;4.75;;
8225;SDS011;4154;48.810;9.012;2022-10-18T17:58:08;5.43;;;4.95;;
8225;SDS011;4154;48.810;9.012;2022-10-18T18:00:34;5.50;;;5.00;;
8225;SDS011;4154;48.810;9.012;2022-10-18T18:03:00;5.35;;;4.95;;
8225;SDS011;4154;48.810;9.012;2022-10-18T18:05:29;6.40;;;5.10;;
8225;SDS011;4154;48.810;9.012;2022-10-18T18:07:57;5.30;;;4.60;;
8225;SDS011;4154;48.810;9.012;2022-10-18T18:10:23;5.97;;;5.25;;
8225;SDS011;4154;48.810;9.012;2022-10-18T18:12:49;6.07;;;5.25;;
8225;SDS011;4154;48.810;9.012;2022-10-18T18:15:14;5.70;;;5.20;;
8225;SDS011;4154;48.810;9.012;2022-10-18T18:17:40;5.93;;;5.47;;
8225;SDS011;4154;48.810;9.012;2022-10-18T18:20:06;7.65;;;6.10;;
8225;SDS011;4154;48.810;9.012;2022-10-18T18:22:32;6.18;;;5.68;;
8225;SDS011;4154;48.810;9.012;2022-10-18T18:24:58;6.22;;;5.57;;
8225;SDS011;4154;48.810;9.012;2022-10-18T18:27:24;5.57;;;5.15;;
8225;SDS011;4154;48.810;9.012;2022-10-18T18:29:50;9.82;;;6.20;;
8225;SDS011;4154;48.810;9.012;2022-10-18T18:32:15;7.97;;;5.65;;
8225;SDS011;4154;48.810;9.012;2022-10-18T18:34:41;7.05;;;6.45;;
8225;SDS011;4154;48.810;9.012;2022-10-18T18:37:07;6.68;;;5.93;;
8225;SDS011;4154;48.810;9.012;2022-10-18T18:39:33;6.32;;;5.72;;
8225;SDS011;4154;48.810;9.012;2022-10-18T18:42:00;6.88;;;5.90;;
8225;SDS011;4154;48.810;9.012;2022-10-18T18:44:28;6.88;;;6.05;;
8225;SDS011;4154;48.810;9.012;2022-10-18T18:46:54;7.53;;;6.25;;
8225;SDS011;4154;48.810;9.012;2022-10-18T18:49:22;6.80;;;6.20;;
8225;SDS011;4154;48.810;9.012;2022-10-18T18:51:48;7.10;;;6.47;;
8225;SDS011;4154;48.810;9.012;2022-10-18T18:54:14;7.53;;;6.13;;
8225;SDS011;4154;48.810;9.012;2022-10-18T18:56:40;8.65;;;6.50;;
8225;SDS011;4154;48.810;9.012;2022-10-18T18:59:06;8.50;;;6.53;;